Time;durP1;ratioP1;P1;durP2;ratioP2;P2;SDS_P1;SDS_P2;PMS_P1;PMS_P2;Temp;Humidity;BMP_temperature;BMP_pressure;BME280_temperature;BME280_humidity;BME280_pressure;Samples;Min_cycle;Max_cycle;Signal;HPM_P1;HPM_P2
2020/12/27 00:38:24;;;;;;;7.35;5.00;;;0.50;65.40;;;;;;6051597;23;21413;-81
2020/12/27 00:40:51;;;;;;;12.07;5.10;;;0.50;65.50;;;;;;4985161;28;20301;-80
2020/12/27 00:43:17;;;;;;;9.55;4.95;;;0.40;64.90;;;;;;4986130;28;20575;-81
2020/12/27 00:45:43;;;;;;;8.68;5.20;;;0.40;64.80;;;;;;4983547;28;20205;-81
2020/12/27 00:48:10;;;;;;;12.75;5.38;;;0.40;65.10;;;;;;4979580;28;20213;-81
2020/12/27 00:50:36;;;;;;;8.88;5.25;;;0.40;65.40;;;;;;4980030;28;20211;-80
2020/12/27 08:30:27;;;;;;;4.15;3.60;;;1.50;57.60;;;;;;5946285;23;20183;-81
2020/12/27 08:33:14;;;;;;;8.20;2.58;;;1.60;56.70;;;;;;5027752;28;20235;-81
2020/12/27 08:35:43;;;;;;;4.40;2.88;;;1.70;56.80;;;;;;5028995;28;20307;-81
2020/12/27 08:38:31;;;;;;;5.20;3.13;;;1.60;56.40;;;;;;5026981;28;20297;-80
2020/12/27 08:41:07;;;;;;;4.53;2.95;;;1.60;56.40;;;;;;5029000;28;20235;-80
2020/12/27 08:43:49;;;;;;;4.57;3.30;;;1.70;56.50;;;;;;5028929;28;20207;-80
2020/12/27 08:46:21;;;;;;;4.90;3.45;;;1.80;56.60;;;;;;5028518;28;20208;-79
2020/12/27 08:48:56;;;;;;;4.95;4.45;;;1.80;56.80;;;;;;5026880;28;20236;-81
2020/12/27 08:51:25;;;;;;;7.40;4.93;;;1.30;58.50;;;;;;5027369;28;20234;-79
2020/12/27 08:53:52;;;;;;;5.18;3.60;;;1.20;60.00;;;;;;5029096;28;20292;-81
2020/12/27 08:56:19;;;;;;;5.15;3.67;;;1.10;60.00;;;;;;5030347;28;20208;-81
2020/12/27 08:58:55;;;;;;;7.50;4.10;;;1.10;59.70;;;;;;5030536;28;20278;-80
2020/12/27 09:01:24;;;;;;;8.90;3.90;;;1.00;60.90;;;;;;5039617;28;20220;-81
2020/12/27 09:03:51;;;;;;;6.88;4.53;;;1.20;61.10;;;;;;5037976;28;20206;-80
2020/12/27 09:06:18;;;;;;;7.47;4.30;;;1.10;60.20;;;;;;5038167;28;20212;-81
2020/12/27 09:08:44;;;;;;;6.28;3.92;;;0.90;60.80;;;;;;5039337;28;20196;-81
2020/12/27 09:11:11;;;;;;;4.93;4.00;;;1.10;61.00;;;;;;5037440;28;20263;-80
2020/12/27 09:13:38;;;;;;;5.22;4.10;;;1.10;61.00;;;;;;5039149;28;20223;-81
2020/12/27 09:16:05;;;;;;;11.70;4.20;;;1.10;61.00;;;;;;5038475;28;20196;-80
2020/12/27 09:18:33;;;;;;;6.28;4.28;;;1.30;61.20;;;;;;5036032;28;20203;-81
2020/12/27 09:21:02;;;;;;;6.82;3.95;;;1.20;61.10;;;;;;5037559;28;20238;-81
2020/12/27 09:23:28;;;;;;;5.95;4.40;;;1.30;61.20;;;;;;5036813;28;20211;-80
2020/12/27 09:26:06;;;;;;;7.50;5.07;;;1.20;61.10;;;;;;5035151;28;20208;-81
2020/12/27 09:28:33;;;;;;;4.97;3.72;;;1.20;61.10;;;;;;5035136;28;20228;-81
2020/12/27 09:31:01;;;;;;;5.47;4.45;;;1.40;61.20;;;;;;5034876;28;20270;-81
2020/12/27 09:33:29;;;;;;;5.97;4.30;;;1.50;61.10;;;;;;5032015;28;20216;-82
2020/12/27 09:35:56;;;;;;;6.20;4.45;;;1.60;59.90;;;;;;5034384;28;20207;-80
2020/12/27 09:38:25;;;;;;;4.95;3.63;;;1.40;60.00;;;;;;5032896;28;20216;-80
2020/12/27 09:41:06;;;;;;;4.82;3.83;;;1.40;59.80;;;;;;5033267;28;20243;-81
2020/12/27 09:43:45;;;;;;;6.00;4.47;;;1.50;59.70;;;;;;5035188;28;20211;-81
2020/12/27 09:46:11;;;;;;;6.10;3.78;;;1.20;60.00;;;;;;5033897;28;20208;-81
2020/12/27 09:48:38;;;;;;;5.85;3.42;;;1.30;61.20;;;;;;5033538;28;20235;-81
2020/12/27 09:51:15;;;;;;;7.43;4.20;;;1.20;61.00;;;;;;5033443;28;20238;-80
2020/12/27 09:53:42;;;;;;;6.25;4.25;;;1.20;61.10;;;;;;5031777;28;20682;-81
2020/12/27 09:56:08;;;;;;;6.68;4.25;;;1.20;61.10;;;;;;5031942;28;20312;-81
2020/12/27 09:58:35;;;;;;;8.13;4.22;;;1.20;61.10;;;;;;5033453;28;20211;-81
2020/12/27 10:01:01;;;;;;;5.82;4.20;;;1.20;61.10;;;;;;5032879;28;20291;-82
2020/12/27 10:03:27;;;;;;;5.55;3.70;;;1.30;61.20;;;;;;5033089;28;20251;-80
2020/12/27 10:05:53;;;;;;;6.45;4.68;;;1.40;60.50;;;;;;5032235;28;20262;-80
2020/12/27 10:08:20;;;;;;;5.80;4.68;;;1.30;61.20;;;;;;5034180;28;20555;-81
2020/12/27 10:10:47;;;;;;;5.85;4.15;;;1.40;61.20;;;;;;5029691;28;20239;-81
2020/12/27 10:13:13;;;;;;;6.43;4.93;;;1.50;60.50;;;;;;5033656;28;20224;-81
2020/12/27 10:15:40;;;;;;;6.03;3.97;;;1.50;59.60;;;;;;5033748;28;20211;-81
2020/12/27 10:18:06;;;;;;;5.07;4.55;;;1.50;60.00;;;;;;5029354;28;20208;-80
2020/12/27 10:20:32;;;;;;;11.65;5.43;;;1.70;60.10;;;;;;5033006;28;20269;-81
2020/12/27 10:22:59;;;;;;;7.22;5.35;;;1.80;58.90;;;;;;5034805;28;20231;-81
2020/12/27 10:25:25;;;;;;;8.63;5.15;;;1.80;58.90;;;;;;5030201;28;20235;-80
2020/12/27 10:27:52;;;;;;;8.88;5.10;;;1.80;59.00;;;;;;5026490;28;20423;-80
2020/12/27 10:30:19;;;;;;;6.20;4.57;;;2.10;59.10;;;;;;5031077;28;20219;-80
2020/12/27 10:32:45;;;;;;;8.85;4.53;;;2.30;58.70;;;;;;5032990;28;20224;-81
2020/12/27 10:35:11;;;;;;;6.55;4.45;;;2.50;57.50;;;;;;5033292;28;20229;-81
2020/12/27 10:37:38;;;;;;;4.72;3.70;;;2.40;56.60;;;;;;5028457;28;20215;-82
2020/12/27 10:40:04;;;;;;;6.55;4.28;;;2.50;57.80;;;;;;5029454;28;20252;-80
2020/12/27 10:42:30;;;;;;;5.63;4.05;;;2.60;56.40;;;;;;5028422;28;20664;-81
2020/12/27 10:44:58;;;;;;;7.13;4.47;;;2.50;57.10;;;;;;5029346;28;20219;-81
2020/12/27 10:47:24;;;;;;;5.65;4.00;;;2.70;57.20;;;;;;5028196;28;20274;-81
2020/12/27 10:49:50;;;;;;;6.45;4.03;;;3.00;56.70;;;;;;5031933;28;20308;-81
2020/12/27 10:52:17;;;;;;;6.70;4.40;;;3.00;56.10;;;;;;5035668;28;20232;-82
2020/12/27 10:54:43;;;;;;;10.32;4.90;;;3.00;55.80;;;;;;5037143;28;20269;-80
2020/12/27 10:57:09;;;;;;;5.80;4.47;;;3.00;55.20;;;;;;5036978;28;20215;-83
2020/12/27 10:59:36;;;;;;;5.45;4.38;;;3.00;54.70;;;;;;5037330;28;20216;-82
2020/12/27 11:02:03;;;;;;;7.85;4.82;;;3.10;54.20;;;;;;5037674;28;20222;-82
2020/12/27 11:04:29;;;;;;;5.78;4.18;;;3.10;53.80;;;;;;5033055;28;20207;-82
2020/12/27 11:06:56;;;;;;;4.40;3.97;;;3.10;54.00;;;;;;5030646;28;20212;-82
2020/12/27 11:09:22;;;;;;;5.50;3.50;;;2.90;56.10;;;;;;5032706;28;20236;-82
2020/12/27 11:11:49;;;;;;;6.90;3.60;;;3.10;55.30;;;;;;5036397;28;20250;-82
2020/12/27 11:14:15;;;;;;;3.97;3.67;;;3.10;54.60;;;;;;5036245;28;20192;-82
2020/12/27 11:16:42;;;;;;;4.32;3.92;;;3.20;54.80;;;;;;5033576;28;20258;-81
2020/12/27 11:19:09;;;;;;;3.88;3.13;;;2.90;55.30;;;;;;5035749;28;20196;-82
2020/12/27 11:21:35;;;;;;;3.10;2.80;;;2.90;56.30;;;;;;5035503;28;20235;-82
2020/12/27 11:24:02;;;;;;;4.50;3.50;;;2.80;56.80;;;;;;5035870;28;20209;-82
2020/12/27 11:26:28;;;;;;;6.72;3.65;;;2.90;56.30;;;;;;5034962;28;20270;-80
2020/12/27 11:28:54;;;;;;;3.70;3.20;;;2.70;57.20;;;;;;5033802;28;20208;-81
2020/12/27 11:31:21;;;;;;;6.65;4.20;;;2.80;58.00;;;;;;5034464;28;20232;-81
2020/12/27 11:33:48;;;;;;;5.53;4.13;;;2.80;57.90;;;;;;5036516;28;20196;-81
2020/12/27 11:36:16;;;;;;;4.80;3.65;;;2.90;58.00;;;;;;5036559;28;20203;-81
2020/12/27 11:38:42;;;;;;;5.10;3.95;;;2.90;57.30;;;;;;5036312;28;20197;-81
2020/12/27 11:41:12;;;;;;;4.90;3.65;;;3.10;57.60;;;;;;5034243;28;20255;-81
2020/12/27 11:43:38;;;;;;;5.80;4.22;;;3.10;57.60;;;;;;5033333;28;20242;-81
2020/12/27 11:46:04;;;;;;;6.00;4.80;;;3.20;57.00;;;;;;5035227;28;20216;-82
2020/12/27 11:48:31;;;;;;;4.20;3.42;;;3.40;57.30;;;;;;5033425;28;20219;-83
2020/12/27 11:50:58;;;;;;;5.15;4.32;;;3.40;56.70;;;;;;5029816;28;20228;-83
2020/12/27 11:53:25;;;;;;;8.25;4.68;;;3.60;56.10;;;;;;5029487;28;20204;-82
2020/12/27 11:55:51;;;;;;;4.43;3.80;;;3.70;55.30;;;;;;5026813;28;20387;-82
2020/12/27 11:58:18;;;;;;;5.20;4.05;;;3.50;56.20;;;;;;5025115;28;20212;-83
2020/12/27 12:00:44;;;;;;;4.70;3.58;;;3.40;57.10;;;;;;5028718;28;20232;-82
2020/12/27 12:03:11;;;;;;;5.10;3.63;;;3.40;56.50;;;;;;5026323;28;20236;-82
2020/12/27 12:05:37;;;;;;;5.22;3.20;;;3.20;57.00;;;;;;5029688;28;20216;-83
2020/12/27 12:08:04;;;;;;;4.90;3.25;;;3.00;56.90;;;;;;5030637;28;20219;-83
2020/12/27 12:10:31;;;;;;;6.22;3.75;;;3.00;57.40;;;;;;5026886;28;20205;-82
2020/12/27 12:12:57;;;;;;;7.07;3.88;;;3.10;57.60;;;;;;5024154;28;20250;-83
2020/12/27 12:15:24;;;;;;;4.55;3.20;;;3.10;58.10;;;;;;5024676;28;20224;-83
2020/12/27 12:17:50;;;;;;;4.35;3.25;;;3.20;58.10;;;;;;5025632;28;20683;-83
2020/12/27 12:23:01;;;;;;;4.47;3.92;;;3.50;57.10;;;;;;5033952;28;20195;-81
2020/12/27 12:25:28;;;;;;;5.45;3.85;;;3.40;57.10;;;;;;5032732;28;20218;-81
2020/12/27 12:27:55;;;;;;;6.82;4.00;;;3.30;58.10;;;;;;5035144;28;20207;-84
2020/12/27 12:30:22;;;;;;;4.28;3.60;;;3.30;58.20;;;;;;5036002;28;20214;-83
2020/12/27 12:32:48;;;;;;;5.68;3.42;;;3.30;58.40;;;;;;5036228;28;20200;-83
2020/12/27 12:35:14;;;;;;;6.15;3.42;;;3.60;58.30;;;;;;5035374;28;20196;-83
2020/12/27 12:37:41;;;;;;;3.35;3.05;;;3.70;57.20;;;;;;5036115;28;20204;-83
2020/12/27 12:40:08;;;;;;;5.25;3.60;;;3.70;57.00;;;;;;5035653;28;20230;-83
2020/12/27 12:42:37;;;;;;;9.15;4.25;;;3.70;56.50;;;;;;5035502;28;20212;-83
2020/12/27 12:45:06;;;;;;;4.82;3.95;;;3.80;56.10;;;;;;5035534;28;20208;-84
2020/12/27 12:47:32;;;;;;;4.28;3.42;;;3.80;55.70;;;;;;5034914;28;20188;-84
2020/12/27 12:49:59;;;;;;;5.60;3.30;;;3.80;55.80;;;;;;5035592;28;20204;-83
2020/12/27 12:52:25;;;;;;;4.80;3.70;;;3.80;55.90;;;;;;5035635;28;20212;-84
2020/12/27 12:54:52;;;;;;;4.13;3.50;;;3.80;56.00;;;;;;5035964;28;20188;-82
2020/12/27 12:57:18;;;;;;;4.40;3.25;;;3.80;56.40;;;;;;5035294;28;20212;-83
2020/12/27 12:59:44;;;;;;;4.32;3.55;;;3.70;56.60;;;;;;5035444;28;20250;-82
2020/12/27 13:02:12;;;;;;;4.78;3.85;;;3.60;57.10;;;;;;5035747;28;20209;-83
2020/12/27 13:04:38;;;;;;;4.45;3.33;;;3.80;57.60;;;;;;5035616;28;20189;-82
2020/12/27 13:07:05;;;;;;;3.67;3.28;;;3.90;57.10;;;;;;5034602;28;20224;-84
2020/12/27 13:09:31;;;;;;;7.85;4.35;;;4.00;57.20;;;;;;5034137;28;20217;-83
2020/12/27 13:11:58;;;;;;;5.82;3.60;;;4.00;56.90;;;;;;5034417;28;20211;-82
2020/12/27 13:14:24;;;;;;;4.80;3.88;;;4.00;56.70;;;;;;5032347;28;20213;-82
2020/12/27 13:16:51;;;;;;;9.70;5.10;;;4.10;57.00;;;;;;5031622;28;20216;-82
2020/12/27 13:19:18;;;;;;;8.82;5.75;;;4.40;56.70;;;;;;5032597;28;20221;-83
2020/12/27 13:21:45;;;;;;;10.23;6.72;;;4.60;56.00;;;;;;5034341;28;20266;-83
2020/12/27 13:24:11;;;;;;;11.55;7.00;;;4.60;55.00;;;;;;5034982;28;20207;-84
2020/12/27 13:26:38;;;;;;;14.50;8.70;;;4.60;55.50;;;;;;5030303;28;20244;-82
2020/12/27 13:29:04;;;;;;;14.27;7.40;;;4.60;55.00;;;;;;5020305;28;20271;-82
2020/12/27 13:31:36;;;;;;;18.35;10.13;;;4.70;55.10;;;;;;5017454;28;20300;-82
2020/12/27 13:34:03;;;;;;;16.42;10.10;;;4.70;55.10;;;;;;5024010;28;20255;-83
2020/12/27 13:36:30;;;;;;;37.22;17.45;;;4.90;55.20;;;;;;5024425;28;20232;-81
2020/12/27 13:38:57;;;;;;;38.55;20.10;;;4.90;55.20;;;;;;5017896;28;20228;-81
2020/12/27 13:41:23;;;;;;;54.53;24.15;;;5.00;55.30;;;;;;5019228;28;20299;-81
2020/12/27 13:43:50;;;;;;;54.90;25.17;;;4.60;55.00;;;;;;5023683;28;20551;-81
2020/12/27 13:46:17;;;;;;;61.90;26.08;;;4.70;55.10;;;;;;5025941;28;20232;-82
2020/12/27 13:48:44;;;;;;;61.40;23.60;;;4.80;55.20;;;;;;5026531;28;20219;-82
2020/12/27 13:51:10;;;;;;;60.50;23.83;;;5.00;55.30;;;;;;5031560;28;20226;-83
2020/12/27 13:53:39;;;;;;;59.10;23.58;;;5.10;55.40;;;;;;5030881;28;20213;-84
2020/12/27 13:56:05;;;;;;;59.72;26.45;;;5.10;55.40;;;;;;5023919;28;20237;-82
2020/12/27 13:58:32;;;;;;;54.72;24.35;;;5.00;55.30;;;;;;5026384;28;20272;-82
2020/12/27 14:00:59;;;;;;;50.38;25.42;;;4.90;55.50;;;;;;5027438;28;20310;-83
2020/12/27 14:03:25;;;;;;;60.03;25.27;;;4.90;56.60;;;;;;5034420;28;20208;-83
2020/12/27 14:05:51;;;;;;;56.55;24.75;;;4.90;55.70;;;;;;5033696;28;20321;-82
2020/12/27 14:08:18;;;;;;;42.88;21.67;;;5.10;56.10;;;;;;5032583;28;20210;-83
2020/12/27 14:10:45;;;;;;;48.42;21.70;;;5.20;56.00;;;;;;5031907;28;20229;-83
2020/12/27 14:13:12;;;;;;;45.70;17.42;;;5.30;55.60;;;;;;5028248;28;20291;-83
2020/12/27 14:15:38;;;;;;;35.40;15.63;;;5.40;55.70;;;;;;5033012;28;20240;-82
2020/12/27 14:18:04;;;;;;;32.38;13.75;;;5.40;55.70;;;;;;5032791;28;20209;-82
2020/12/27 14:20:31;;;;;;;26.15;12.82;;;5.50;55.80;;;;;;5033125;28;20225;-83
2020/12/27 14:22:57;;;;;;;20.27;9.88;;;5.50;55.80;;;;;;5035720;28;20212;-83
2020/12/27 14:25:24;;;;;;;21.02;9.18;;;5.40;55.70;;;;;;5036495;28;20327;-83
2020/12/27 14:27:51;;;;;;;19.40;8.93;;;5.40;55.70;;;;;;5035536;28;20193;-83
2020/12/27 14:30:17;;;;;;;17.65;7.50;;;5.50;55.80;;;;;;5035956;28;20285;-83
2020/12/27 14:32:44;;;;;;;14.80;7.65;;;5.50;55.90;;;;;;5030722;28;20220;-84
2020/12/27 14:35:10;;;;;;;13.57;7.88;;;5.50;56.50;;;;;;5028975;28;20227;-82
2020/12/27 14:37:37;;;;;;;11.60;6.03;;;5.40;57.00;;;;;;5031872;28;20211;-82
2020/12/27 14:40:03;;;;;;;8.73;5.43;;;5.50;56.80;;;;;;5031809;28;20229;-82
2020/12/27 14:42:30;;;;;;;4.15;3.60;;;5.50;57.00;;;;;;5036841;28;20213;-82
2020/12/27 14:44:57;;;;;;;4.10;2.90;;;5.50;56.30;;;;;;5072853;23;20224;-87
2020/12/27 14:47:24;;;;;;;5.90;3.08;;;5.60;57.00;;;;;;5018937;28;20222;-85
2020/12/27 14:49:50;;;;;;;3.72;2.50;;;5.60;57.00;;;;;;5018949;28;20261;-86
2020/12/27 14:52:17;;;;;;;7.28;3.17;;;5.50;56.50;;;;;;5019098;28;20197;-84
2020/12/27 14:54:43;;;;;;;3.58;2.70;;;5.50;56.20;;;;;;5015965;28;20237;-89
2020/12/27 14:57:10;;;;;;;9.48;4.47;;;5.50;55.90;;;;;;5010832;28;20244;-87
2020/12/27 14:59:36;;;;;;;7.60;4.40;;;5.50;56.40;;;;;;5015042;28;20208;-87
2020/12/27 15:02:04;;;;;;;7.05;4.68;;;5.40;57.00;;;;;;5011964;28;20205;-88
2020/12/27 15:04:30;;;;;;;5.95;3.53;;;5.30;57.40;;;;;;5013500;28;20229;-86
2020/12/27 15:06:57;;;;;;;3.53;3.00;;;5.30;57.30;;;;;;5015606;28;20209;-88
2020/12/27 15:09:24;;;;;;;2.25;2.05;;;5.40;57.40;;;;;;5017411;28;20216;-86
2020/12/27 15:11:50;;;;;;;2.80;1.70;;;5.30;57.40;;;;;;5014293;28;20205;-88
2020/12/27 15:14:17;;;;;;;3.08;2.17;;;5.30;57.20;;;;;;5012564;28;20217;-87
2020/12/27 15:16:43;;;;;;;3.65;2.28;;;5.30;56.90;;;;;;5010757;28;20241;-89
2020/12/27 15:19:11;;;;;;;2.58;1.80;;;5.30;56.80;;;;;;5009787;28;20214;-87
2020/12/27 15:21:37;;;;;;;3.22;1.92;;;5.30;57.10;;;;;;5007648;28;20222;-85
2020/12/27 15:24:04;;;;;;;2.25;2.05;;;5.20;56.70;;;;;;5008260;28;20244;-84
2020/12/27 15:26:31;;;;;;;2.85;1.85;;;5.30;56.50;;;;;;5004022;28;20213;-85
2020/12/27 15:28:57;;;;;;;3.65;2.30;;;5.30;55.80;;;;;;5011336;28;20199;-86
2020/12/27 15:31:24;;;;;;;2.45;2.25;;;5.20;56.00;;;;;;5018025;28;20524;-85
2020/12/27 15:33:50;;;;;;;2.95;2.20;;;5.20;55.50;;;;;;5016722;28;20207;-87
2020/12/27 15:36:19;;;;;;;4.85;2.40;;;5.20;55.50;;;;;;5012201;28;20225;-86
2020/12/27 15:38:49;;;;;;;2.55;2.00;;;5.20;55.50;;;;;;5006247;28;20224;-86
2020/12/27 15:41:15;;;;;;;3.75;2.17;;;5.20;55.00;;;;;;5005093;28;20250;-84
2020/12/27 15:43:46;;;;;;;3.10;2.15;;;5.20;54.70;;;;;;5007971;28;20217;-85
2020/12/27 15:46:12;;;;;;;2.45;2.08;;;5.20;54.70;;;;;;5005771;28;20238;-86
2020/12/27 15:48:39;;;;;;;2.58;2.25;;;5.20;54.20;;;;;;5006849;28;20224;-86
2020/12/27 15:51:06;;;;;;;2.72;2.33;;;5.20;54.40;;;;;;5004211;28;20356;-85
2020/12/27 15:53:33;;;;;;;2.10;1.90;;;5.10;53.60;;;;;;5004331;28;20218;-85
2020/12/27 15:56:00;;;;;;;4.07;3.40;;;5.10;53.50;;;;;;5004809;28;20237;-85
2020/12/27 15:58:27;;;;;;;4.68;2.95;;;5.10;53.50;;;;;;5004871;28;20565;-84
2020/12/27 16:00:53;;;;;;;87.78;48.28;;;5.10;53.10;;;;;;5005602;28;20241;-87
2020/12/27 16:03:20;;;;;;;3.10;2.65;;;5.10;53.80;;;;;;5006182;28;20205;-84
2020/12/27 16:05:46;;;;;;;18.17;9.70;;;5.00;52.80;;;;;;5010626;28;20236;-86
2020/12/27 16:08:13;;;;;;;13.70;8.35;;;5.10;52.80;;;;;;5016626;28;20474;-87
2020/12/27 16:10:42;;;;;;;27.63;17.35;;;5.10;52.90;;;;;;5017727;28;20194;-91
2020/12/27 16:13:09;;;;;;;7.13;5.55;;;5.10;52.40;;;;;;5017706;28;20198;-89
2020/12/27 16:15:36;;;;;;;3.78;3.20;;;5.10;52.30;;;;;;5016241;28;20230;-85
2020/12/27 16:18:03;;;;;;;3.55;3.00;;;5.10;52.30;;;;;;5011106;28;20206;-83
2020/12/27 16:20:30;;;;;;;3.33;2.88;;;5.10;51.10;;;;;;5004856;28;20298;-85
2020/12/27 16:22:57;;;;;;;4.85;3.42;;;5.10;50.70;;;;;;5004248;28;20212;-83
2020/12/27 16:25:23;;;;;;;5.55;3.60;;;5.10;50.70;;;;;;5004300;28;20250;-85
2020/12/27 16:27:51;;;;;;;5.15;3.20;;;5.20;50.20;;;;;;5011969;28;20202;-86
2020/12/27 16:30:20;;;;;;;5.55;3.42;;;5.30;49.70;;;;;;5003404;28;20224;-85
2020/12/27 16:32:47;;;;;;;5.95;3.67;;;5.20;50.10;;;;;;5003858;28;20213;-86
2020/12/27 16:35:14;;;;;;;2.38;2.17;;;5.30;49.80;;;;;;5002945;28;20320;-86
2020/12/27 16:37:41;;;;;;;2.55;2.35;;;5.30;46.90;;;;;;5004164;28;20205;-84
2020/12/27 16:40:07;;;;;;;1.15;1.00;;;5.40;46.20;;;;;;5002646;28;20234;-85
2020/12/27 16:42:34;;;;;;;0.93;0.85;;;5.60;44.10;;;;;;5006328;28;20285;-84
2020/12/27 16:45:02;;;;;;;5.28;0.90;;;6.30;39.20;;;;;;5006319;28;20237;-85
2020/12/27 16:47:29;;;;;;;0.80;0.70;;;6.80;37.70;;;;;;5003830;28;20271;-86
2020/12/27 16:49:55;;;;;;;0.82;0.70;;;7.10;36.30;;;;;;5007571;28;20202;-85
2020/12/27 16:52:24;;;;;;;0.70;0.65;;;7.30;35.30;;;;;;5007730;28;20222;-86
2020/12/27 16:54:51;;;;;;;0.98;0.88;;;7.40;34.50;;;;;;5009140;28;20229;-85
2020/12/27 16:57:17;;;;;;;1.98;0.70;;;7.50;34.30;;;;;;5011031;28;20205;-85
2020/12/27 16:59:44;;;;;;;0.90;0.90;;;7.60;34.00;;;;;;5008880;28;20204;-85
2020/12/27 17:02:12;;;;;;;2.25;1.50;;;7.60;34.60;;;;;;5006317;28;20223;-84
2020/12/27 17:04:38;;;;;;;1.90;1.80;;;7.40;35.70;;;;;;5009027;28;20233;-84
2020/12/27 17:07:05;;;;;;;1.30;1.20;;;7.10;37.70;;;;;;5009206;28;20214;-85
2020/12/27 17:09:32;;;;;;;2.67;2.00;;;7.10;38.00;;;;;;5012053;28;20214;-84
2020/12/27 17:11:59;;;;;;;2.60;1.90;;;6.60;38.50;;;;;;5009620;28;20256;-86
2020/12/27 17:14:25;;;;;;;2.70;1.75;;;6.40;39.50;;;;;;5010538;28;20238;-90
2020/12/27 17:16:52;;;;;;;3.20;2.35;;;6.20;40.20;;;;;;5009811;28;20218;-88
2020/12/27 17:19:20;;;;;;;2.40;2.17;;;6.20;40.70;;;;;;5008515;28;20216;-87
2020/12/27 17:21:46;;;;;;;3.03;2.53;;;6.10;40.90;;;;;;5012823;28;20245;-88
2020/12/27 17:24:14;;;;;;;1.58;1.30;;;6.20;41.20;;;;;;5013561;28;20217;-86
2020/12/27 17:26:40;;;;;;;7.32;3.95;;;6.30;42.80;;;;;;5012754;28;20211;-89
2020/12/27 17:29:11;;;;;;;2.92;1.25;;;6.80;41.40;;;;;;5011111;28;20210;-85
2020/12/27 17:31:38;;;;;;;2.15;1.08;;;7.10;42.90;;;;;;5009062;28;20261;-84
2020/12/27 17:34:05;;;;;;;0.70;0.70;;;7.50;45.00;;;;;;5012651;28;20214;-90
2020/12/27 17:36:34;;;;;;;0.80;0.80;;;7.50;46.30;;;;;;5018053;28;20197;-90
2020/12/27 17:39:00;;;;;;;1.20;0.90;;;7.70;45.70;;;;;;5019082;28;20218;-86
2020/12/27 17:41:27;;;;;;;0.70;0.70;;;7.70;46.40;;;;;;5017529;28;20273;-90
2020/12/27 17:43:55;;;;;;;1.67;1.00;;;7.70;48.20;;;;;;5017970;28;20474;-88
2020/12/27 17:46:21;;;;;;;0.60;0.50;;;7.70;48.20;;;;;;5017861;28;20306;-87
2020/12/27 17:48:48;;;;;;;0.88;0.75;;;7.70;48.20;;;;;;5020857;28;20191;-88
2020/12/27 17:51:15;;;;;;;1.52;0.80;;;7.80;48.30;;;;;;5019028;28;20613;-87
2020/12/27 17:53:43;;;;;;;0.98;0.60;;;7.90;48.40;;;;;;5015342;28;20206;-87
2020/12/27 17:56:16;;;;;;;0.50;0.50;;;7.90;48.40;;;;;;5019227;28;20282;-85
2020/12/27 17:58:43;;;;;;;0.63;0.60;;;7.80;48.90;;;;;;5020086;28;20238;-85
2020/12/27 18:01:09;;;;;;;0.50;0.50;;;7.70;49.00;;;;;;5019746;28;20242;-84
2020/12/27 18:03:36;;;;;;;0.93;0.75;;;7.80;49.20;;;;;;5019548;28;20211;-85
2020/12/27 18:06:05;;;;;;;0.60;0.60;;;7.80;49.00;;;;;;5019400;28;20219;-84
2020/12/27 18:08:32;;;;;;;0.70;0.63;;;7.80;48.30;;;;;;5018779;28;20206;-86
2020/12/27 18:10:59;;;;;;;0.63;0.63;;;7.80;48.30;;;;;;5007961;28;20192;-87
2020/12/27 18:13:26;;;;;;;1.00;0.60;;;7.90;48.40;;;;;;5014197;28;20232;-87
2020/12/27 18:15:52;;;;;;;1.88;0.52;;;7.90;48.50;;;;;;5015024;28;20223;-86
2020/12/27 18:18:19;;;;;;;0.57;0.57;;;8.00;48.50;;;;;;5012194;28;20241;-86
2020/12/27 18:20:45;;;;;;;0.70;0.70;;;8.00;48.50;;;;;;5013195;28;20261;-90
2020/12/27 18:23:12;;;;;;;0.80;0.80;;;8.00;47.00;;;;;;5012555;28;20210;-86
2020/12/27 18:25:38;;;;;;;1.30;0.70;;;8.10;46.20;;;;;;5013976;28;20250;-88
2020/12/27 18:28:06;;;;;;;2.95;1.90;;;8.10;46.40;;;;;;5012063;28;20218;-86
2020/12/27 18:30:32;;;;;;;2.13;1.92;;;7.90;45.50;;;;;;5015218;28;20218;-87
2020/12/27 18:32:59;;;;;;;1.90;1.70;;;7.70;46.60;;;;;;5016902;28;20213;-82
2020/12/27 18:35:25;;;;;;;2.45;2.20;;;7.50;48.00;;;;;;5019827;28;20215;-87
2020/12/27 18:37:52;;;;;;;2.88;2.15;;;7.30;47.80;;;;;;5019399;28;20191;-86
2020/12/27 18:40:18;;;;;;;3.17;1.80;;;7.20;47.80;;;;;;5019370;28;20214;-86
2020/12/27 18:42:45;;;;;;;2.10;1.80;;;7.00;46.60;;;;;;5019175;28;20277;-86
2020/12/27 18:45:12;;;;;;;2.33;1.80;;;7.00;47.60;;;;;;5018474;28;20226;-86
2020/12/27 18:47:39;;;;;;;3.15;2.17;;;6.90;47.60;;;;;;5017933;28;20190;-87
2020/12/27 18:50:06;;;;;;;4.00;2.30;;;6.80;47.50;;;;;;5015962;28;20214;-86
2020/12/27 18:52:32;;;;;;;5.57;3.03;;;6.80;47.50;;;;;;5017541;28;20190;-85
2020/12/27 18:54:59;;;;;;;3.40;2.78;;;6.80;48.30;;;;;;5017985;28;20226;-85
2020/12/27 18:57:26;;;;;;;9.93;4.97;;;6.80;47.50;;;;;;5017387;28;20208;-88
2020/12/27 18:59:52;;;;;;;4.80;2.40;;;6.80;47.60;;;;;;5015044;28;20238;-85
2020/12/27 19:02:20;;;;;;;4.25;2.67;;;6.70;47.40;;;;;;5017651;28;20217;-89
2020/12/27 19:04:47;;;;;;;5.50;2.90;;;6.70;47.40;;;;;;5019529;28;20219;-84
2020/12/27 19:07:13;;;;;;;4.55;2.97;;;6.70;47.40;;;;;;5019034;28;20262;-88
2020/12/27 19:09:40;;;;;;;4.85;2.85;;;6.80;48.00;;;;;;5018207;28;20213;-86
2020/12/27 19:12:12;;;;;;;5.65;3.15;;;6.80;48.10;;;;;;5011964;28;20222;-83
2020/12/27 19:14:38;;;;;;;3.00;2.33;;;6.80;47.50;;;;;;5006457;28;20241;-84
2020/12/27 19:17:06;;;;;;;2.78;2.50;;;6.80;48.80;;;;;;5005373;28;20240;-83
2020/12/27 19:19:34;;;;;;;2.80;2.58;;;6.70;49.20;;;;;;5005947;28;20229;-86
2020/12/27 19:22:00;;;;;;;4.05;3.53;;;6.50;49.40;;;;;;5010109;28;20236;-86
2020/12/27 19:24:27;;;;;;;4.68;3.53;;;6.20;50.60;;;;;;5012430;28;20309;-84
2020/12/27 19:26:55;;;;;;;4.60;3.83;;;6.10;50.80;;;;;;5015073;28;20222;-85
2020/12/27 19:29:24;;;;;;;4.97;3.90;;;6.10;51.20;;;;;;5015947;28;20214;-89
2020/12/27 19:31:50;;;;;;;5.40;3.88;;;6.00;51.10;;;;;;5015598;28;20214;-86
2020/12/27 19:34:17;;;;;;;6.15;3.70;;;5.80;51.60;;;;;;5015780;28;20206;-86
2020/12/27 19:36:47;;;;;;;3.40;3.08;;;5.90;52.70;;;;;;5007703;28;20229;-83
2020/12/27 19:39:15;;;;;;;3.55;2.83;;;6.00;53.30;;;;;;5006551;28;20222;-85
2020/12/27 19:41:44;;;;;;;2.92;2.70;;;6.10;54.00;;;;;;5005370;28;20234;-84
2020/12/27 19:44:11;;;;;;;4.53;2.25;;;6.20;54.00;;;;;;5003693;28;20210;-84
2020/12/27 19:46:38;;;;;;;2.53;2.22;;;6.30;54.20;;;;;;5005009;28;20221;-85
2020/12/27 19:49:07;;;;;;;3.03;2.20;;;6.40;54.40;;;;;;5013909;28;20224;-84
2020/12/27 19:51:35;;;;;;;1.20;1.10;;;6.40;55.10;;;;;;5013869;28;20753;-86
2020/12/27 19:54:06;;;;;;;0.70;0.65;;;6.50;56.60;;;;;;5005448;28;20218;-86
2020/12/27 19:56:33;;;;;;;0.63;0.63;;;7.00;56.50;;;;;;5006579;28;20201;-83
2020/12/27 19:59:01;;;;;;;0.98;0.60;;;7.30;56.00;;;;;;5007643;28;20277;-86
2020/12/27 20:01:28;;;;;;;1.02;0.80;;;7.60;55.70;;;;;;5009892;28;20233;-87
2020/12/27 20:03:54;;;;;;;1.17;0.80;;;7.70;54.90;;;;;;5014519;28;20237;-87
2020/12/27 20:06:22;;;;;;;0.65;0.65;;;7.80;54.10;;;;;;5015019;28;20291;-87
2020/12/27 20:08:51;;;;;;;1.25;0.50;;;7.90;54.40;;;;;;5010034;28;20210;-86
2020/12/27 20:11:20;;;;;;;0.63;0.60;;;8.10;53.10;;;;;;5006546;28;20257;-84
2020/12/27 20:13:48;;;;;;;0.73;0.73;;;8.20;53.20;;;;;;5005523;28;20215;-85
2020/12/27 20:16:20;;;;;;;0.85;0.50;;;8.30;53.40;;;;;;5003932;28;20235;-85
2020/12/27 20:18:47;;;;;;;0.60;0.60;;;8.40;53.60;;;;;;5005230;28;20237;-85
2020/12/27 20:21:14;;;;;;;0.40;0.40;;;8.30;53.50;;;;;;5014667;28;20694;-86
2020/12/27 20:23:43;;;;;;;0.50;0.50;;;8.30;53.00;;;;;;5015302;28;20198;-83
2020/12/27 20:26:12;;;;;;;0.50;0.50;;;8.30;53.20;;;;;;5006496;28;20234;-84
2020/12/27 20:28:40;;;;;;;0.47;0.40;;;8.30;53.50;;;;;;5007261;28;20238;-83
2020/12/27 20:31:09;;;;;;;3.08;0.50;;;8.40;52.50;;;;;;5006768;28;20223;-84
2020/12/27 20:33:36;;;;;;;0.55;0.52;;;8.40;52.10;;;;;;5006284;28;20219;-84
2020/12/27 20:36:09;;;;;;;0.65;0.40;;;8.50;51.20;;;;;;5004727;28;20244;-84
2020/12/27 20:38:36;;;;;;;0.40;0.40;;;8.50;50.90;;;;;;5010938;28;20199;-85
2020/12/27 20:41:04;;;;;;;0.85;0.50;;;8.60;50.60;;;;;;5008308;28;20314;-85
2020/12/27 20:43:30;;;;;;;0.50;0.50;;;8.60;50.70;;;;;;5006678;28;20234;-84
2020/12/27 20:46:01;;;;;;;0.50;0.38;;;8.60;50.90;;;;;;5005152;28;20279;-84
2020/12/27 20:48:30;;;;;;;0.60;0.50;;;8.70;49.90;;;;;;5005195;28;20235;-84
2020/12/27 20:50:57;;;;;;;1.13;0.50;;;8.70;49.10;;;;;;5004161;28;20213;-84
2020/12/27 20:53:24;;;;;;;0.73;0.50;;;8.70;49.80;;;;;;5002760;28;20239;-84
2020/12/27 20:55:54;;;;;;;1.23;1.13;;;8.70;50.00;;;;;;5002592;28;20245;-90
2020/12/27 20:58:20;;;;;;;1.30;1.20;;;8.40;49.90;;;;;;5003135;28;20205;-86
2020/12/27 21:00:47;;;;;;;2.33;1.80;;;8.10;51.10;;;;;;5002626;28;20259;-85
2020/12/27 21:03:18;;;;;;;1.60;1.48;;;7.80;52.10;;;;;;5003364;28;20214;-84
2020/12/27 21:05:55;;;;;;;1.27;1.10;;;7.60;53.20;;;;;;5003396;28;20239;-87
2020/12/27 21:08:28;;;;;;;1.80;1.70;;;7.50;54.50;;;;;;5016474;28;20246;-85
2020/12/27 21:10:54;;;;;;;1.50;1.40;;;7.20;54.20;;;;;;5017707;28;20210;-90
2020/12/27 21:13:21;;;;;;;1.15;0.80;;;7.10;55.60;;;;;;5011612;28;20209;-85